createdAt,value
2022-12-18T00:01:00.651Z,3.10
2022-12-18T00:03:02.493Z,3.10
2022-12-18T00:05:04.698Z,3.10
2022-12-18T00:07:06.583Z,3.10
2022-12-18T00:09:08.486Z,3.10
2022-12-18T00:11:20.813Z,3.00
2022-12-18T00:13:22.777Z,3.00
2022-12-18T00:15:24.610Z,3.00
2022-12-18T00:17:26.471Z,3.00
2022-12-18T00:19:28.510Z,3.00
2022-12-18T00:21:30.644Z,2.90
2022-12-18T00:23:36.237Z,2.90
2022-12-18T00:25:38.330Z,2.80
2022-12-18T00:27:40.199Z,2.80
2022-12-18T00:29:42.023Z,2.80
2022-12-18T00:31:44.406Z,2.80
2022-12-18T00:33:46.673Z,2.80
2022-12-18T00:35:48.535Z,2.80
2022-12-18T00:37:50.431Z,2.80
2022-12-18T00:39:52.363Z,2.80
2022-12-18T00:42:12.657Z,2.80
2022-12-18T00:44:18.154Z,2.80
2022-12-18T00:46:20.120Z,2.70
2022-12-18T00:48:22.009Z,2.70
2022-12-18T00:50:25.611Z,2.70
2022-12-18T00:52:27.489Z,2.60
2022-12-18T00:54:29.497Z,2.60
2022-12-18T00:56:31.353Z,2.70
2022-12-18T00:58:33.230Z,2.60
2022-12-18T01:00:35.725Z,2.60
2022-12-18T01:02:37.806Z,2.50
2022-12-18T01:04:39.742Z,2.50
2022-12-18T01:06:41.780Z,2.60
2022-12-18T01:08:44.712Z,2.50
2022-12-18T01:10:46.571Z,2.50
2022-12-18T01:12:49.189Z,2.50
2022-12-18T01:14:51.239Z,2.50
2022-12-18T01:16:53.102Z,2.50
2022-12-18T01:18:55.904Z,2.50
2022-12-18T01:20:57.861Z,2.40
2022-12-18T01:22:59.835Z,2.40
2022-12-18T01:25:01.775Z,2.40
2022-12-18T01:27:03.698Z,2.50
2022-12-18T01:29:05.579Z,2.30
2022-12-18T01:31:28.798Z,2.30
2022-12-18T01:33:30.693Z,2.30
2022-12-18T01:35:32.847Z,2.30
2022-12-18T01:37:34.716Z,2.20
2022-12-18T01:39:36.545Z,2.10
2022-12-18T01:41:57.788Z,2.10
2022-12-18T01:43:59.651Z,2.20
2022-12-18T01:46:01.532Z,2.10
2022-12-18T01:48:07.836Z,2.10
2022-12-18T01:50:16.984Z,2.10
2022-12-18T01:52:19.814Z,2.10
2022-12-18T01:54:21.728Z,2.10
2022-12-18T01:56:23.808Z,2.10
2022-12-18T01:58:31.587Z,2.10
2022-12-18T02:00:33.451Z,2.10
2022-12-18T02:02:35.735Z,2.10
2022-12-18T02:04:37.716Z,2.10
2022-12-18T02:06:42.450Z,2.10
2022-12-18T02:08:44.237Z,2.00
2022-12-18T02:11:08.336Z,2.00
2022-12-18T02:13:19.271Z,2.00
2022-12-18T02:15:35.312Z,2.00
2022-12-18T02:17:44.311Z,2.00
2022-12-18T02:19:52.045Z,1.90
2022-12-18T02:21:58.241Z,1.80
2022-12-18T02:24:35.751Z,1.80
2022-12-18T02:26:43.538Z,1.80
2022-12-18T02:29:06.866Z,1.80
2022-12-18T02:31:14.772Z,1.70
2022-12-18T02:33:18.371Z,1.70
2022-12-18T02:35:30.000Z,1.60
2022-12-18T02:37:33.412Z,1.50
2022-12-18T02:39:38.598Z,1.50
2022-12-18T02:41:41.048Z,1.40
2022-12-18T02:43:54.330Z,1.40
2022-12-18T02:45:59.242Z,1.40
2022-12-18T02:48:01.186Z,1.40
2022-12-18T02:50:21.835Z,1.50
2022-12-18T02:52:53.100Z,1.50
2022-12-18T02:55:16.349Z,1.40
2022-12-18T02:57:33.380Z,1.50
2022-12-18T02:59:59.386Z,1.50
2022-12-18T03:02:27.949Z,1.40
2022-12-18T03:05:01.988Z,1.40
2022-12-18T03:07:09.011Z,1.40
2022-12-18T03:09:32.790Z,1.30
2022-12-18T03:11:56.174Z,1.40
2022-12-18T03:13:58.933Z,1.40
2022-12-18T03:16:02.466Z,1.40
2022-12-18T03:18:10.057Z,1.30
2022-12-18T03:20:16.018Z,1.40
2022-12-18T03:22:18.651Z,1.40
2022-12-18T03:24:22.220Z,1.30
2022-12-18T03:26:27.937Z,1.30
2022-12-18T03:28:33.149Z,1.30
2022-12-18T03:30:37.557Z,1.30
2022-12-18T03:32:58.796Z,1.30
2022-12-18T03:35:07.701Z,1.20
2022-12-18T03:37:09.669Z,1.20
2022-12-18T03:39:11.490Z,1.10
2022-12-18T03:41:41.386Z,1.20
2022-12-18T03:44:09.995Z,1.10
2022-12-18T03:46:36.825Z,1.10
2022-12-18T03:48:52.739Z,1.00
2022-12-18T03:51:09.080Z,1.00
2022-12-18T03:53:43.711Z,1.00
2022-12-18T03:55:48.488Z,1.00
2022-12-18T03:57:52.247Z,1.00
2022-12-18T04:00:08.105Z,1.00
2022-12-18T04:02:10.685Z,1.00
2022-12-18T04:04:15.343Z,1.10
2022-12-18T04:06:18.312Z,0.90
2022-12-18T04:08:21.728Z,0.80
2022-12-18T04:10:24.016Z,0.80
2022-12-18T04:12:27.285Z,0.90
2022-12-18T04:14:29.150Z,0.80
2022-12-18T04:16:30.989Z,0.80
2022-12-18T04:18:32.832Z,0.80
2022-12-18T04:20:34.672Z,0.90
2022-12-18T04:22:36.579Z,0.90
2022-12-18T04:24:38.602Z,0.90
2022-12-18T04:26:40.649Z,0.80
2022-12-18T04:28:42.764Z,0.80
2022-12-18T04:30:44.717Z,0.80
2022-12-18T04:32:51.900Z,0.80
2022-12-18T04:34:54.227Z,0.90
2022-12-18T04:36:55.964Z,0.90
2022-12-18T04:38:57.952Z,0.80
2022-12-18T04:41:00.127Z,0.80
2022-12-18T04:43:02.041Z,0.70
2022-12-18T04:45:04.003Z,0.70
2022-12-18T04:47:05.880Z,0.70
2022-12-18T04:49:07.908Z,0.70
2022-12-18T04:51:09.677Z,0.70
2022-12-18T04:53:11.555Z,0.70
2022-12-18T04:55:13.413Z,0.70
2022-12-18T04:57:15.418Z,0.70
2022-12-18T04:59:17.182Z,0.70
2022-12-18T05:01:19.701Z,0.70
2022-12-18T05:03:21.656Z,0.80
2022-12-18T05:05:23.648Z,0.70
2022-12-18T05:07:25.527Z,0.70
2022-12-18T05:09:27.427Z,0.70
2022-12-18T05:11:29.347Z,0.80
2022-12-18T05:13:31.683Z,0.70
2022-12-18T05:15:34.905Z,0.70
2022-12-18T05:17:36.913Z,0.70
2022-12-18T05:19:40.128Z,0.70
2022-12-18T05:21:41.957Z,0.70
2022-12-18T05:23:44.607Z,0.70
2022-12-18T05:25:57.861Z,0.70
2022-12-18T05:27:59.751Z,0.70
2022-12-18T05:30:02.013Z,0.70
2022-12-18T05:32:03.958Z,0.70
2022-12-18T05:34:05.977Z,0.60
2022-12-18T05:36:09.463Z,0.70
2022-12-18T05:38:11.526Z,0.60
2022-12-18T05:40:13.782Z,0.70
2022-12-18T05:42:15.746Z,0.60
2022-12-18T05:44:17.492Z,0.60
2022-12-18T05:46:19.697Z,0.60
2022-12-18T05:48:22.322Z,0.50
2022-12-18T05:50:24.162Z,0.60
2022-12-18T05:52:26.056Z,0.50
2022-12-18T05:54:32.098Z,0.60
2022-12-18T05:56:33.976Z,0.50
2022-12-18T05:58:36.066Z,0.40
2022-12-18T06:00:40.964Z,0.50
2022-12-18T08:14:13.471Z,0.60
2022-12-18T08:16:15.295Z,0.60
2022-12-18T08:18:17.160Z,0.50
2022-12-18T08:20:19.397Z,0.60
2022-12-18T08:22:21.375Z,0.60
2022-12-18T08:24:23.132Z,0.60
2022-12-18T08:26:27.141Z,0.70
2022-12-18T08:28:29.010Z,0.70
2022-12-18T08:30:30.922Z,0.70
2022-12-18T08:32:33.940Z,0.80
2022-12-18T08:34:35.919Z,0.70
2022-12-18T08:36:37.816Z,0.70
2022-12-18T08:38:39.719Z,0.80
2022-12-18T08:40:41.606Z,0.60
2022-12-18T08:43:01.853Z,0.40
2022-12-18T08:45:04.746Z,0.30
2022-12-18T08:47:07.580Z,0.30
2022-12-18T08:49:10.487Z,0.30
2022-12-18T08:51:12.641Z,0.20
2022-12-18T08:53:14.524Z,0.10
2022-12-18T08:55:16.410Z,0.20
2022-12-18T08:57:18.443Z,0.10
2022-12-18T08:59:20.788Z,0.20
2022-12-18T09:01:23.420Z,0.20
2022-12-18T09:03:25.389Z,0.10
2022-12-18T09:05:27.243Z,0.10
2022-12-18T09:07:30.382Z,0.10
2022-12-18T09:09:32.514Z,0.10
2022-12-18T09:11:34.857Z,0.10
2022-12-18T09:13:36.937Z,0.10
2022-12-18T09:15:46.638Z,0.00
2022-12-18T09:17:50.880Z,0.00
2022-12-18T09:19:52.718Z,0.00
2022-12-18T09:21:54.676Z,0.00
2022-12-18T09:23:56.743Z,0.00
2022-12-18T09:26:01.744Z,-0.10
2022-12-18T09:28:08.198Z,-0.10
2022-12-18T09:30:10.655Z,0.00
2022-12-18T09:32:14.373Z,0.00
2022-12-18T09:34:21.991Z,-0.10
2022-12-18T09:36:24.399Z,-0.10
2022-12-18T09:38:26.272Z,0.00
2022-12-18T09:40:33.041Z,-0.10
2022-12-18T09:42:34.950Z,0.00
2022-12-18T09:44:45.561Z,-0.10
2022-12-18T09:46:55.236Z,-0.10
2022-12-18T09:49:01.491Z,0.00
2022-12-18T09:51:42.772Z,0.00
2022-12-18T09:53:53.579Z,-0.10
2022-12-18T09:55:57.297Z,-0.10
2022-12-18T09:58:07.479Z,0.00
2022-12-18T10:00:25.412Z,0.00
2022-12-18T10:02:31.225Z,0.00
2022-12-18T10:04:33.722Z,-0.10
2022-12-18T10:06:49.660Z,0.00
2022-12-18T10:09:27.144Z,0.00
2022-12-18T10:11:28.942Z,-0.10
2022-12-18T10:13:38.892Z,0.00
2022-12-18T10:15:55.723Z,-0.10
2022-12-18T10:18:27.654Z,-0.10
2022-12-18T10:20:42.802Z,-0.20
2022-12-18T10:22:47.169Z,-0.20
2022-12-18T10:25:16.442Z,-0.10
2022-12-18T10:27:23.004Z,-0.10
2022-12-18T10:29:26.532Z,-0.10
2022-12-18T10:31:28.668Z,-0.10
2022-12-18T10:33:33.088Z,-0.20
2022-12-18T10:35:36.562Z,-0.10
2022-12-18T10:38:02.986Z,-0.20
2022-12-18T10:40:21.949Z,-0.20
2022-12-18T10:42:24.572Z,-0.30
2022-12-18T10:44:27.301Z,-0.30
2022-12-18T10:46:29.291Z,-0.30
2022-12-18T10:48:32.347Z,-0.40
2022-12-18T10:51:09.899Z,-0.40
2022-12-18T10:53:06.380Z,-0.50
2022-12-18T10:55:17.440Z,-0.50
2022-12-18T10:57:34.096Z,-0.40
2022-12-18T10:59:55.730Z,-0.50
2022-12-18T11:01:59.199Z,-0.60
2022-12-18T11:04:09.124Z,-0.90
2022-12-18T11:06:17.387Z,-0.80
2022-12-18T11:08:24.329Z,-0.80
2022-12-18T11:10:40.160Z,-0.90
2022-12-18T11:12:42.041Z,-1.00
2022-12-18T11:14:48.377Z,-1.00
2022-12-18T11:19:38.302Z,-1.10
2022-12-18T11:21:42.562Z,-1.00
2022-12-18T11:23:49.364Z,-1.00
2022-12-18T11:25:57.792Z,-1.00
2022-12-18T11:28:06.048Z,-1.20
2022-12-18T11:30:15.430Z,-1.20
2022-12-18T11:32:32.658Z,-1.30
2022-12-18T11:34:35.117Z,-1.30
2022-12-18T11:36:45.126Z,-1.30
2022-12-18T11:38:50.436Z,-1.40
2022-12-18T11:41:24.213Z,-1.30
2022-12-18T11:43:49.318Z,-1.30
2022-12-18T11:45:57.082Z,-1.40
2022-12-18T11:48:04.835Z,-1.30
2022-12-18T11:50:23.315Z,-1.20
2022-12-18T11:52:29.854Z,-1.30
2022-12-18T11:54:31.717Z,-1.30
2022-12-18T11:56:37.393Z,-1.30
2022-12-18T11:58:50.853Z,-1.20
2022-12-18T12:01:22.658Z,-1.20
2022-12-18T14:17:11.641Z,-1.90
2022-12-18T14:19:18.617Z,-2.00
2022-12-18T14:21:29.137Z,-2.00
2022-12-18T14:23:42.568Z,-2.00
2022-12-18T14:25:48.160Z,-2.00
2022-12-18T14:28:09.849Z,-1.90
2022-12-18T14:30:32.464Z,-2.00
2022-12-18T14:32:34.330Z,-1.90
2022-12-18T14:34:36.128Z,-1.90
2022-12-18T14:36:40.925Z,-1.90
2022-12-18T14:38:42.796Z,-1.90
2022-12-18T14:40:45.041Z,-1.90
2022-12-18T14:42:46.983Z,-1.90
2022-12-18T14:45:12.903Z,-1.80
2022-12-18T14:47:16.830Z,-1.80
2022-12-18T14:49:33.874Z,-1.70
2022-12-18T14:51:37.232Z,-1.70
2022-12-18T14:53:53.956Z,-1.70
2022-12-18T14:55:56.638Z,-1.70
2022-12-18T14:57:58.830Z,-1.70
2022-12-18T15:00:19.738Z,-1.70
2022-12-18T15:02:25.731Z,-1.70
2022-12-18T15:04:40.597Z,-1.80
2022-12-18T15:06:44.899Z,-1.80
2022-12-18T15:08:47.956Z,-1.80
2022-12-18T15:10:50.035Z,-1.80
2022-12-18T15:12:57.748Z,-1.80
2022-12-18T15:14:59.750Z,-1.80
2022-12-18T15:17:04.456Z,-1.80
2022-12-18T15:19:09.047Z,-1.80
2022-12-18T15:21:16.044Z,-1.80
2022-12-18T15:23:24.024Z,-1.80
2022-12-18T15:25:48.789Z,-1.90
2022-12-18T15:27:50.697Z,-1.90
2022-12-18T15:30:17.682Z,-1.80
2022-12-18T15:32:21.281Z,-1.80
2022-12-18T15:34:24.047Z,-1.90
2022-12-18T15:36:27.025Z,-1.90
2022-12-18T15:38:29.173Z,-1.90
2022-12-18T15:40:30.943Z,-1.90
2022-12-18T15:42:51.353Z,-1.90
2022-12-18T15:44:53.236Z,-1.90
2022-12-18T15:46:58.558Z,-1.80
2022-12-18T15:49:02.801Z,-1.90
2022-12-18T15:51:10.337Z,-1.90
2022-12-18T15:53:12.289Z,-1.90
2022-12-18T15:55:33.426Z,-1.90
2022-12-18T15:57:35.246Z,-1.90
2022-12-18T15:59:37.180Z,-1.90
2022-12-18T16:01:42.465Z,-1.90
2022-12-18T16:03:45.292Z,-1.90
2022-12-18T16:05:47.584Z,-1.90
2022-12-18T16:07:49.370Z,-1.90
2022-12-18T16:09:51.275Z,-1.90
2022-12-18T16:11:53.109Z,-1.90
2022-12-18T16:13:54.969Z,-1.90
2022-12-18T16:15:56.856Z,-1.90
2022-12-18T16:17:58.801Z,-1.90
2022-12-18T16:20:00.724Z,-1.80
2022-12-18T16:22:02.649Z,-1.90
2022-12-18T16:24:04.841Z,-1.80
2022-12-18T16:26:06.675Z,-1.90
2022-12-18T16:28:08.533Z,-1.90
2022-12-18T16:30:13.739Z,-1.90
2022-12-18T16:32:20.929Z,-1.90
2022-12-18T16:34:29.456Z,-1.90
2022-12-18T16:36:31.598Z,-1.90
2022-12-18T16:38:33.456Z,-2.00
2022-12-18T16:40:55.160Z,-2.00
2022-12-18T16:42:57.003Z,-2.00
2022-12-18T16:44:58.890Z,-2.00
2022-12-18T16:47:03.222Z,-2.00
2022-12-18T16:49:05.716Z,-1.90
2022-12-18T16:51:07.640Z,-2.00
2022-12-18T16:53:09.370Z,-2.00
2022-12-18T16:55:11.492Z,-2.00
2022-12-18T16:57:15.112Z,-2.00
2022-12-18T16:59:17.242Z,-2.10
2022-12-18T17:01:23.774Z,-2.00
2022-12-18T17:03:25.896Z,-2.00
2022-12-18T17:05:27.802Z,-2.00
2022-12-18T17:07:33.135Z,-2.00
2022-12-18T17:09:37.349Z,-2.00
2022-12-18T17:11:42.662Z,-1.90
2022-12-18T17:13:44.543Z,-2.00
2022-12-18T17:15:46.955Z,-2.00
2022-12-18T17:17:48.786Z,-1.90
2022-12-18T17:19:51.250Z,-2.00
2022-12-18T17:21:54.333Z,-2.00
2022-12-18T17:23:56.420Z,-2.00
2022-12-18T17:26:01.426Z,-2.10
2022-12-18T17:28:03.351Z,-2.00
2022-12-18T17:30:07.013Z,-2.00
2022-12-18T17:32:08.923Z,-2.00
2022-12-18T17:34:11.312Z,-2.00
2022-12-18T17:36:13.298Z,-2.00
2022-12-18T17:38:15.402Z,-2.10
2022-12-18T17:40:18.446Z,-2.10
2022-12-18T17:42:21.651Z,-2.00
2022-12-18T17:44:26.741Z,-2.00
2022-12-18T17:46:31.833Z,-2.00
2022-12-18T17:48:34.173Z,-2.00
2022-12-18T17:50:36.545Z,-2.10
2022-12-18T17:52:38.396Z,-2.00
2022-12-18T17:54:42.161Z,-2.00
2022-12-18T17:56:50.229Z,-2.00
2022-12-18T17:58:52.137Z,-2.00
2022-12-18T18:00:54.246Z,-2.00
2022-12-18T20:14:36.763Z,-2.20
2022-12-18T20:16:38.792Z,-2.40
2022-12-18T20:18:40.893Z,-2.30
2022-12-18T20:20:43.322Z,-2.30
2022-12-18T20:22:45.276Z,-2.40
2022-12-18T20:24:47.274Z,-2.40
2022-12-18T20:26:51.588Z,-2.40
2022-12-18T20:28:54.104Z,-2.40
2022-12-18T20:31:00.943Z,-2.40
2022-12-18T20:33:02.889Z,-2.40
2022-12-18T20:35:05.396Z,-2.40
2022-12-18T20:37:08.362Z,-2.30
2022-12-18T20:39:12.296Z,-2.30
2022-12-18T20:41:18.675Z,-2.30
2022-12-18T20:43:20.536Z,-2.30
2022-12-18T20:45:22.496Z,-2.30
2022-12-18T20:47:24.374Z,-2.30
2022-12-18T20:49:27.124Z,-2.30
2022-12-18T20:51:29.288Z,-2.30
2022-12-18T20:53:31.971Z,-2.30
2022-12-18T20:55:33.817Z,-2.30
2022-12-18T20:57:35.739Z,-2.20
2022-12-18T20:59:46.241Z,-2.30
2022-12-18T21:01:50.243Z,-2.30
2022-12-18T21:03:52.893Z,-2.30
2022-12-18T21:05:54.731Z,-2.20
2022-12-18T21:07:56.537Z,-2.20
2022-12-18T21:09:58.408Z,-2.20
2022-12-18T21:12:18.705Z,-2.30
2022-12-18T21:14:23.277Z,-2.30
2022-12-18T21:16:25.333Z,-2.30
2022-12-18T21:18:28.058Z,-2.40
2022-12-18T21:20:29.851Z,-2.40
2022-12-18T21:22:31.772Z,-2.40
2022-12-18T21:24:33.501Z,-2.30
2022-12-18T21:26:39.193Z,-2.20
2022-12-18T21:28:45.514Z,-2.20
2022-12-18T21:30:47.353Z,-2.20
2022-12-18T21:32:49.258Z,-2.30
2022-12-18T21:34:52.039Z,-2.10
2022-12-18T21:36:55.876Z,-2.20
2022-12-18T21:38:59.107Z,-2.30
2022-12-18T21:41:05.763Z,-2.40
2022-12-18T21:43:28.212Z,-2.30
2022-12-18T21:45:30.041Z,-2.40
2022-12-18T21:47:31.975Z,-2.40
2022-12-18T21:49:33.753Z,-2.30
2022-12-18T21:51:36.705Z,-2.30
2022-12-18T21:53:38.784Z,-2.40
2022-12-18T21:55:40.678Z,-2.40
2022-12-18T21:57:42.432Z,-2.40
2022-12-18T21:59:44.550Z,-2.40
2022-12-18T22:01:48.179Z,-2.50
2022-12-18T22:03:50.117Z,-2.50
2022-12-18T22:06:07.597Z,-2.50
2022-12-18T22:08:11.655Z,-2.40
2022-12-18T22:10:14.046Z,-2.50
2022-12-18T22:12:35.508Z,-2.50
2022-12-18T22:14:38.291Z,-2.50
2022-12-18T22:16:40.194Z,-2.50
2022-12-18T22:18:43.092Z,-2.40
2022-12-18T22:20:49.196Z,-2.40
2022-12-18T22:22:52.520Z,-2.40
2022-12-18T22:24:54.502Z,-2.40
2022-12-18T22:27:01.990Z,-2.40
2022-12-18T22:29:23.448Z,-2.40
2022-12-18T22:31:25.383Z,-2.40
2022-12-18T22:33:27.717Z,-2.40
2022-12-18T22:35:29.585Z,-2.40
2022-12-18T22:37:31.502Z,-2.40
2022-12-18T22:39:33.316Z,-2.50
2022-12-18T22:41:35.773Z,-2.50
2022-12-18T22:43:38.108Z,-2.50
2022-12-18T22:45:40.042Z,-2.60
2022-12-18T22:47:42.563Z,-2.70
2022-12-18T22:49:44.515Z,-2.70
2022-12-18T22:51:48.060Z,-2.70
2022-12-18T22:53:55.911Z,-2.70
2022-12-18T22:56:02.413Z,-2.70
2022-12-18T22:58:04.462Z,-2.80
2022-12-18T23:00:08.579Z,-2.80
2022-12-18T23:02:10.555Z,-2.80
2022-12-18T23:04:13.269Z,-2.70
2022-12-18T23:06:15.445Z,-2.80
2022-12-18T23:08:17.453Z,-2.80
2022-12-18T23:10:19.412Z,-2.70
2022-12-18T23:12:21.231Z,-2.80
2022-12-18T23:14:23.454Z,-2.80
2022-12-18T23:16:25.252Z,-2.80
2022-12-18T23:18:27.190Z,-2.80
2022-12-18T23:20:29.010Z,-2.80
2022-12-18T23:22:30.956Z,-2.80
2022-12-18T23:24:32.803Z,-2.70
2022-12-18T23:26:35.040Z,-2.70
2022-12-18T23:28:37.989Z,-2.80
2022-12-18T23:30:39.852Z,-2.70
2022-12-18T23:32:41.726Z,-2.90
2022-12-18T23:34:43.829Z,-2.80
2022-12-18T23:36:46.949Z,-2.80
2022-12-18T23:38:51.646Z,-2.80
2022-12-18T23:40:53.488Z,-2.80
2022-12-18T23:43:00.186Z,-2.90
2022-12-18T23:45:05.238Z,-2.90
2022-12-18T23:47:19.321Z,-2.80
2022-12-18T23:49:21.279Z,-2.90
2022-12-18T23:51:25.014Z,-2.90
2022-12-18T23:53:26.869Z,-3.00
2022-12-18T23:55:28.586Z,-2.90
2022-12-18T23:57:30.448Z,-3.00
2022-12-18T23:59:32.398Z,-3.00
